Time;durP1;ratioP1;P1;durP2;ratioP2;P2;SDS_P1;SDS_P2;PMS_P1;PMS_P2;Temp;Humidity;BMP_temperature;BMP_pressure;BME280_temperature;BME280_humidity;BME280_pressure;Samples;Min_cycle;Max_cycle;Signal;HPM_P1;HPM_P2
2023/03/31 00:00:21;;;;;;;240.13;188.15;;;15.90;99.90;;;;;;4976074;28;20096;-86
2023/03/31 00:02:47;;;;;;;334.67;274.55;;;14.50;99.90;;;;;;4977215;28;20084;-86
2023/03/31 00:05:16;;;;;;;256.30;195.65;;;13.60;99.90;;;;;;4983713;28;20138;-86
2023/03/31 00:07:44;;;;;;;387.23;277.20;;;12.80;99.90;;;;;;4973797;28;20077;-86
2023/03/31 00:10:18;;;;;;;398.38;336.75;;;12.10;99.90;;;;;;4973866;28;20046;-86
2023/03/31 00:12:44;;;;;;;402.70;330.30;;;15.10;99.90;;;;;;4986136;28;20417;-86
2023/03/31 00:15:10;;;;;;;418.92;332.63;;;13.10;99.90;;;;;;4972737;28;20129;-86
2023/03/31 00:17:35;;;;;;;357.67;292.73;;;12.50;99.90;;;;;;4990364;28;20539;-86
2023/03/31 00:20:04;;;;;;;271.23;214.80;;;12.90;99.90;;;;;;4976350;28;20057;-85
2023/03/31 00:22:30;;;;;;;362.20;288.52;;;14.30;99.90;;;;;;4993045;28;20470;-85
2023/03/31 00:24:55;;;;;;;318.08;259.88;;;13.10;99.90;;;;;;4976712;28;20076;-85
2023/03/31 00:27:21;;;;;;;260.15;218.70;;;14.30;99.90;;;;;;4973499;28;20042;-85
2023/03/31 00:29:49;;;;;;;431.98;375.08;;;12.20;99.90;;;;;;4974468;28;20070;-85
2023/03/31 00:32:15;;;;;;;424.45;330.00;;;13.00;99.90;;;;;;4993610;28;20165;-85
2023/03/31 00:34:41;;;;;;;303.83;248.48;;;13.70;99.90;;;;;;4997273;28;20057;-85
2023/03/31 00:37:08;;;;;;;273.60;223.70;;;15.30;99.90;;;;;;4989228;28;20133;-85
2023/03/31 00:39:35;;;;;;;468.30;414.30;;;14.00;99.90;;;;;;4993466;28;20045;-85
2023/03/31 00:42:02;;;;;;;422.00;366.95;;;14.10;99.90;;;;;;5000882;28;20030;-85
2023/03/31 00:44:29;;;;;;;468.63;419.85;;;13.30;99.90;;;;;;4976716;28;20088;-85
2023/03/31 00:47:18;;;;;;;472.80;424.42;;;12.60;99.90;;;;;;4994210;28;20076;-85
2023/03/31 00:49:50;;;;;;;476.45;427.52;;;11.40;99.90;;;;;;5002626;28;20505;-85
2023/03/31 00:52:26;;;;;;;288.67;244.07;;;13.50;99.90;;;;;;4987697;28;20052;-85
2023/03/31 00:55:00;;;;;;;323.80;288.63;;;12.30;99.90;;;;;;4995181;28;20439;-85
2023/03/31 00:57:31;;;;;;;396.08;354.05;;;11.60;99.90;;;;;;4995795;28;20080;-85
2023/03/31 01:00:02;;;;;;;352.90;315.95;;;11.80;99.90;;;;;;5011346;28;20121;-85
2023/03/31 01:02:28;;;;;;;411.80;369.25;;;11.30;99.90;;;;;;4980595;28;20038;-85
2023/03/31 01:04:58;;;;;;;288.45;258.52;;;11.00;99.90;;;;;;4982635;28;20092;-85
2023/03/31 01:07:29;;;;;;;387.80;344.88;;;13.40;99.90;;;;;;4989019;28;20049;-85
2023/03/31 01:09:58;;;;;;;390.52;345.48;;;11.50;99.90;;;;;;4990755;28;20505;-85
2023/03/31 01:12:26;;;;;;;382.45;340.60;;;11.30;99.90;;;;;;4995220;28;20045;-85
2023/03/31 01:14:52;;;;;;;546.10;486.98;;;11.00;99.90;;;;;;5011076;28;20460;-85
2023/03/31 01:17:20;;;;;;;443.58;386.65;;;11.40;99.90;;;;;;4982487;28;20033;-85
2023/03/31 01:20:13;;;;;;;412.25;359.63;;;11.90;99.90;;;;;;4982821;28;20048;-85
2023/03/31 01:22:58;;;;;;;279.75;251.77;;;10.90;99.90;;;;;;4981255;28;20046;-85
2023/03/31 01:25:42;;;;;;;391.35;355.45;;;13.50;99.90;;;;;;4981519;28;20127;-85
2023/03/31 01:28:25;;;;;;;336.02;303.23;;;11.40;99.90;;;;;;5010867;28;20056;-85
2023/03/31 01:31:10;;;;;;;409.73;363.75;;;12.40;99.90;;;;;;4994781;28;20168;-85
2023/03/31 01:33:56;;;;;;;385.73;342.55;;;11.10;99.90;;;;;;4996475;28;20053;-85
2023/03/31 01:36:28;;;;;;;;;;;12.50;99.90;;;;;;4995503;28;20442;-85
2023/03/31 01:39:25;;;;;;;439.60;394.60;;;13.20;99.90;;;;;;4980542;28;19933;-85
2023/03/31 01:42:09;;;;;;;352.63;314.30;;;13.10;99.90;;;;;;5005918;28;20045;-85
2023/03/31 01:44:50;;;;;;;423.65;376.92;;;13.50;99.90;;;;;;4993556;28;20511;-85
2023/03/31 01:47:27;;;;;;;437.70;373.45;;;14.60;99.90;;;;;;4998063;28;20546;-85
2023/03/31 01:50:25;;;;;;;344.58;258.65;;;11.60;99.90;;;;;;4998386;28;20064;-85
2023/03/31 01:53:09;;;;;;;330.63;294.73;;;13.90;99.90;;;;;;4996287;28;20073;-85
2023/03/31 01:55:47;;;;;;;242.10;216.48;;;15.10;99.90;;;;;;5002570;28;20029;-85
2023/03/31 01:58:47;;;;;;;297.25;267.92;;;12.70;99.90;;;;;;5010475;28;20077;-85
2023/03/31 02:01:25;;;;;;;398.25;357.88;;;11.80;99.90;;;;;;4965820;28;20054;-85
2023/03/31 02:03:59;;;;;;;393.25;336.70;;;12.50;99.90;;;;;;4989663;28;20091;-85
2023/03/31 02:06:29;;;;;;;455.55;405.02;;;13.30;99.90;;;;;;4978007;28;20049;-85
2023/03/31 02:09:01;;;;;;;335.63;297.05;;;14.60;99.90;;;;;;5003300;28;20060;-85
2023/03/31 02:11:29;;;;;;;459.63;410.48;;;13.00;99.90;;;;;;5005797;28;20037;-85
2023/03/31 02:13:56;;;;;;;424.73;375.50;;;13.80;99.90;;;;;;5014643;28;20075;-85
2023/03/31 02:16:26;;;;;;;399.48;346.33;;;12.70;99.90;;;;;;4988319;28;20041;-85
2023/03/31 02:19:01;;;;;;;378.58;340.10;;;11.80;99.90;;;;;;4991356;28;20116;-85
2023/03/31 02:21:31;;;;;;;398.13;334.75;;;13.60;99.90;;;;;;5011312;28;20072;-85
2023/03/31 02:24:00;;;;;;;462.00;410.02;;;11.00;99.90;;;;;;4978105;28;20081;-85
2023/03/31 02:26:30;;;;;;;320.13;285.92;;;13.60;99.90;;;;;;4982066;28;20046;-85
2023/03/31 02:28:56;;;;;;;277.13;247.77;;;11.30;99.90;;;;;;4990696;28;20452;-85
2023/03/31 02:31:34;;;;;;;348.10;301.33;;;14.50;99.90;;;;;;4984789;28;20404;-85
2023/03/31 02:34:01;;;;;;;320.38;273.58;;;15.10;99.90;;;;;;4978834;28;20038;-85
2023/03/31 02:36:27;;;;;;;447.58;386.20;;;14.50;99.90;;;;;;4992511;28;20045;-85
2023/03/31 02:39:00;;;;;;;475.73;426.27;;;14.10;99.90;;;;;;5007283;28;20100;-85
2023/03/31 02:41:26;;;;;;;512.53;456.90;;;14.00;99.90;;;;;;4991134;28;20488;-85
2023/03/31 02:43:52;;;;;;;394.48;335.10;;;12.80;99.90;;;;;;4993896;28;20040;-85
2023/03/31 02:46:18;;;;;;;481.77;432.10;;;11.90;99.90;;;;;;5011041;28;20046;-85
2023/03/31 02:48:50;;;;;;;415.48;347.42;;;13.60;99.90;;;;;;4978495;28;20052;-85
2023/03/31 02:51:45;;;;;;;405.67;362.77;;;15.30;99.90;;;;;;4984337;28;20509;-85
2023/03/31 02:54:35;;;;;;;556.03;501.60;;;13.70;99.90;;;;;;4980567;28;20459;-85
2023/03/31 02:57:25;;;;;;;242.13;218.07;;;14.10;99.90;;;;;;5005770;28;20041;-85
2023/03/31 03:00:07;;;;;;;461.25;410.15;;;11.10;99.90;;;;;;4994021;28;20038;-85
2023/03/31 03:02:51;;;;;;;349.40;311.63;;;11.20;99.90;;;;;;4995000;28;20503;-85
2023/03/31 03:05:34;;;;;;;318.50;275.08;;;11.20;99.90;;;;;;4993996;28;20052;-85
2023/03/31 03:08:17;;;;;;;227.75;201.20;;;13.60;99.90;;;;;;4981890;28;20042;-85
2023/03/31 03:10:48;;;;;;;238.35;211.57;;;11.90;99.90;;;;;;5002951;28;20041;-85
2023/03/31 03:13:46;;;;;;;421.60;370.60;;;14.10;99.90;;;;;;4978835;28;20525;-85
2023/03/31 03:16:26;;;;;;;450.50;396.58;;;11.80;99.90;;;;;;4991147;28;20095;-85
2023/03/31 03:18:59;;;;;;;175.10;156.60;;;13.10;99.90;;;;;;4995951;28;20061;-85
2023/03/31 03:21:26;;;;;;;294.75;262.80;;;16.10;99.90;;;;;;4990202;28;20091;-85
2023/03/31 03:23:52;;;;;;;327.13;274.55;;;15.30;99.90;;;;;;4984328;28;20610;-85
2023/03/31 03:26:23;;;;;;;208.90;183.50;;;12.40;99.90;;;;;;4989975;28;20072;-85
2023/03/31 03:28:52;;;;;;;239.45;206.45;;;12.00;99.90;;;;;;4987731;28;20044;-84
2023/03/31 03:31:18;;;;;;;324.58;287.10;;;14.80;99.90;;;;;;4981954;28;20076;-85
2023/03/31 03:33:45;;;;;;;247.90;221.75;;;14.30;99.90;;;;;;4985174;28;20038;-85
2023/03/31 03:36:11;;;;;;;366.98;328.10;;;13.00;99.90;;;;;;4979349;28;20033;-85
2023/03/31 03:38:36;;;;;;;297.75;267.90;;;14.40;99.90;;;;;;4980483;28;20104;-85
2023/03/31 03:41:02;;;;;;;469.80;418.52;;;12.00;99.90;;;;;;5001714;28;20184;-85
2023/03/31 03:43:28;;;;;;;466.17;414.60;;;12.10;99.90;;;;;;4985387;28;20492;-85
2023/03/31 03:45:54;;;;;;;399.45;343.02;;;15.50;99.90;;;;;;5007517;28;20042;-85
2023/03/31 03:48:20;;;;;;;397.23;356.65;;;14.50;99.90;;;;;;5003391;28;20037;-85
2023/03/31 03:50:46;;;;;;;400.40;340.60;;;14.20;99.90;;;;;;4978694;28;20501;-85
2023/03/31 03:53:13;;;;;;;341.48;304.50;;;11.60;99.90;;;;;;4983404;28;20049;-85
2023/03/31 03:55:39;;;;;;;258.30;225.25;;;13.60;99.90;;;;;;4996090;28;20455;-85
2023/03/31 03:58:04;;;;;;;341.25;302.52;;;11.90;99.90;;;;;;5005894;28;20045;-85
2023/03/31 04:00:30;;;;;;;274.95;231.35;;;12.50;99.90;;;;;;4977764;28;20030;-85
2023/03/31 04:02:56;;;;;;;387.70;332.10;;;14.40;99.90;;;;;;4997373;28;20042;-85
2023/03/31 04:05:21;;;;;;;311.02;278.95;;;16.40;99.90;;;;;;4992453;28;20401;-85
2023/03/31 04:07:47;;;;;;;400.83;356.40;;;14.90;99.90;;;;;;4990639;28;20046;-85
2023/03/31 04:10:13;;;;;;;389.13;350.38;;;14.30;99.90;;;;;;4976631;28;20050;-85
2023/03/31 04:12:39;;;;;;;359.95;323.58;;;12.00;99.90;;;;;;4977035;28;20095;-85
2023/03/31 04:15:05;;;;;;;441.27;392.90;;;14.20;99.90;;;;;;4998635;28;20128;-85
2023/03/31 04:17:33;;;;;;;421.70;377.55;;;11.30;99.90;;;;;;4979717;28;20512;-85
2023/03/31 04:20:06;;;;;;;466.95;419.45;;;12.20;99.90;;;;;;5004554;28;20041;-85
2023/03/31 04:22:39;;;;;;;401.85;359.33;;;14.50;99.90;;;;;;4989262;28;20083;-85
2023/03/31 04:25:13;;;;;;;297.98;267.27;;;13.50;99.90;;;;;;4986796;28;20041;-85
2023/03/31 04:27:53;;;;;;;393.50;334.02;;;14.50;99.90;;;;;;4978345;28;20076;-85
2023/03/31 04:30:23;;;;;;;318.50;286.35;;;12.50;99.90;;;;;;4981801;28;20042;-85
2023/03/31 04:32:55;;;;;;;322.67;288.92;;;14.00;99.90;;;;;;4992652;28;21497;-85
2023/03/31 04:35:22;;;;;;;395.42;353.27;;;14.50;99.90;;;;;;4994651;28;20037;-85
2023/03/31 04:37:51;;;;;;;408.90;350.15;;;12.40;99.90;;;;;;4991149;28;20536;-85
2023/03/31 04:40:17;;;;;;;470.60;385.67;;;11.20;99.90;;;;;;4976451;28;20038;-85
2023/03/31 04:42:44;;;;;;;358.77;322.88;;;11.60;99.90;;;;;;5002395;28;20038;-85
2023/03/31 04:45:13;;;;;;;470.33;419.83;;;12.30;99.90;;;;;;4975957;28;20401;-85
2023/03/31 04:47:38;;;;;;;415.63;356.40;;;11.30;99.90;;;;;;4992790;28;20037;-85
2023/03/31 04:50:04;;;;;;;507.98;452.00;;;11.20;99.90;;;;;;4994802;28;20037;-85
2023/03/31 04:52:30;;;;;;;329.17;296.77;;;13.20;99.90;;;;;;4994609;28;20037;-85
2023/03/31 04:54:55;;;;;;;312.25;280.98;;;15.30;99.90;;;;;;4983819;28;20030;-85
2023/03/31 04:57:21;;;;;;;433.42;390.40;;;14.70;99.90;;;;;;4982810;28;20631;-85
2023/03/31 04:59:47;;;;;;;429.13;386.10;;;15.20;99.90;;;;;;4991341;28;20037;-85
2023/03/31 05:02:12;;;;;;;361.30;322.20;;;13.20;99.90;;;;;;5002617;28;20100;-85
2023/03/31 05:04:38;;;;;;;438.63;394.33;;;14.40;99.90;;;;;;4993537;28;20044;-85
2023/03/31 05:07:04;;;;;;;418.70;377.38;;;11.10;99.90;;;;;;4986992;28;20045;-85
2023/03/31 05:09:29;;;;;;;331.13;299.25;;;14.90;99.90;;;;;;5008197;28;20042;-85
2023/03/31 05:11:56;;;;;;;419.40;374.75;;;12.40;99.90;;;;;;5003077;28;20501;-85
2023/03/31 05:14:22;;;;;;;442.40;395.58;;;12.70;99.90;;;;;;4990137;28;20115;-85
2023/03/31 05:16:47;;;;;;;471.83;422.05;;;13.00;99.90;;;;;;4989549;28;20038;-85
2023/03/31 05:19:13;;;;;;;396.20;353.05;;;13.50;99.90;;;;;;4979969;28;20080;-85
2023/03/31 05:21:38;;;;;;;444.73;400.50;;;14.70;99.90;;;;;;4982579;28;20030;-85
2023/03/31 05:24:04;;;;;;;357.52;320.52;;;15.10;99.90;;;;;;5002890;28;20045;-85
2023/03/31 05:26:30;;;;;;;270.92;242.65;;;14.70;99.90;;;;;;4996780;28;20029;-85
2023/03/31 05:28:56;;;;;;;389.52;351.08;;;12.60;99.90;;;;;;4986674;28;20041;-85
2023/03/31 05:31:22;;;;;;;288.10;256.80;;;14.40;99.90;;;;;;4983305;28;20102;-85
2023/03/31 05:33:48;;;;;;;239.60;215.30;;;15.60;99.90;;;;;;4995104;28;20444;-84
2023/03/31 05:36:15;;;;;;;362.77;324.75;;;13.50;99.90;;;;;;4990726;28;20080;-84
2023/03/31 05:38:42;;;;;;;460.92;411.25;;;15.00;99.90;;;;;;4986028;28;20470;-84
2023/03/31 05:41:08;;;;;;;365.60;326.73;;;14.90;99.90;;;;;;4980503;28;20030;-84
2023/03/31 05:43:35;;;;;;;428.60;382.13;;;13.90;99.90;;;;;;4998806;28;20038;-84
2023/03/31 05:46:01;;;;;;;481.42;430.02;;;11.60;99.90;;;;;;4997307;28;20053;-84
2023/03/31 05:48:27;;;;;;;350.48;313.55;;;13.30;99.90;;;;;;4982702;28;20528;-84
2023/03/31 05:51:00;;;;;;;418.15;373.65;;;16.30;99.90;;;;;;4984181;28;20515;-84
2023/03/31 05:53:26;;;;;;;308.40;277.48;;;11.20;99.90;;;;;;5001870;28;20056;-84
2023/03/31 05:56:00;;;;;;;334.33;299.45;;;15.10;99.90;;;;;;4987990;28;20497;-84
2023/03/31 05:58:27;;;;;;;291.98;262.20;;;15.00;99.90;;;;;;5005200;28;20034;-84
2023/03/31 06:01:10;;;;;;;285.02;257.58;;;12.90;99.90;;;;;;4985001;28;20037;-84
2023/03/31 06:03:40;;;;;;;358.77;324.13;;;11.20;99.90;;;;;;4978538;28;20044;-84
2023/03/31 06:06:06;;;;;;;244.35;218.93;;;15.00;99.90;;;;;;4977495;28;20056;-84
2023/03/31 06:08:33;;;;;;;298.92;268.30;;;14.80;99.90;;;;;;4996471;28;20042;-84
2023/03/31 06:10:59;;;;;;;426.30;381.80;;;14.10;99.90;;;;;;4991555;28;20065;-83
2023/03/31 06:13:24;;;;;;;427.45;383.15;;;13.10;99.90;;;;;;4998716;28;20505;-84
2023/03/31 06:15:58;;;;;;;337.00;301.52;;;13.90;99.90;;;;;;5000227;28;20160;-84
2023/03/31 06:18:27;;;;;;;279.33;251.30;;;16.50;99.90;;;;;;4984907;28;20504;-85
2023/03/31 06:20:54;;;;;;;300.42;269.73;;;14.20;99.90;;;;;;4979379;28;20048;-85
2023/03/31 06:23:20;;;;;;;408.67;365.45;;;11.20;99.90;;;;;;4984111;28;20069;-84
2023/03/31 06:25:46;;;;;;;419.85;375.00;;;12.60;99.90;;;;;;4988061;28;22183;-85
2023/03/31 06:28:11;;;;;;;385.20;345.50;;;11.20;99.90;;;;;;4981290;28;20033;-85
2023/03/31 06:30:37;;;;;;;353.05;315.55;;;13.60;99.90;;;;;;4986016;28;20033;-85
2023/03/31 06:33:03;;;;;;;326.00;293.48;;;13.40;99.90;;;;;;4978815;28;20780;-84
2023/03/31 06:35:28;;;;;;;249.38;222.80;;;11.60;99.90;;;;;;4995473;28;20663;-84
2023/03/31 06:37:54;;;;;;;343.33;304.05;;;11.20;99.90;;;;;;4978623;28;20057;-84
2023/03/31 06:40:20;;;;;;;324.60;289.70;;;15.50;99.90;;;;;;4999266;28;20081;-86
2023/03/31 06:42:45;;;;;;;303.70;270.38;;;15.90;99.90;;;;;;5010029;28;20033;-85
2023/03/31 06:45:11;;;;;;;266.48;237.57;;;14.50;99.90;;;;;;4982882;28;20042;-85
2023/03/31 06:47:37;;;;;;;363.20;321.38;;;15.20;99.90;;;;;;4979407;28;20042;-85
2023/03/31 06:50:07;;;;;;;285.27;256.55;;;11.70;99.90;;;;;;5001221;28;20421;-85
2023/03/31 06:52:33;;;;;;;209.57;186.93;;;11.60;99.90;;;;;;5004206;28;20041;-84
2023/03/31 06:54:59;;;;;;;347.38;307.85;;;11.60;99.90;;;;;;4998193;28;20049;-85
2023/03/31 06:57:25;;;;;;;296.73;265.55;;;13.40;99.90;;;;;;4983563;28;20046;-87
2023/03/31 06:59:51;;;;;;;227.43;203.75;;;12.90;99.90;;;;;;4986238;28;20125;-85
2023/03/31 07:02:16;;;;;;;238.57;212.77;;;11.40;99.90;;;;;;5001190;28;20156;-86
2023/03/31 07:04:42;;;;;;;324.30;288.67;;;16.80;99.90;;;;;;5004408;28;20030;-86
2023/03/31 07:07:08;;;;;;;312.65;278.45;;;15.10;99.90;;;;;;4986823;28;20456;-87
2023/03/31 07:09:34;;;;;;;288.98;260.13;;;14.00;99.90;;;;;;4984076;28;20041;-86
2023/03/31 07:12:00;;;;;;;274.88;243.00;;;14.80;99.90;;;;;;4984901;28;20072;-85
2023/03/31 07:14:25;;;;;;;327.58;273.73;;;15.10;99.90;;;;;;5004735;28;20523;-86
2023/03/31 07:16:51;;;;;;;387.50;311.27;;;15.00;99.90;;;;;;4984779;28;20061;-85
2023/03/31 07:19:18;;;;;;;221.57;198.82;;;14.70;99.90;;;;;;5005003;28;20113;-86
2023/03/31 07:21:44;;;;;;;312.58;281.35;;;12.90;99.90;;;;;;4988489;28;20036;-85
2023/03/31 07:24:10;;;;;;;354.25;319.38;;;14.30;99.90;;;;;;5004721;28;20038;-86
2023/03/31 07:26:35;;;;;;;252.82;227.85;;;13.80;99.90;;;;;;4985773;28;20055;-85
2023/03/31 07:29:01;;;;;;;256.58;228.90;;;12.70;99.90;;;;;;4984069;28;20520;-85
2023/03/31 07:31:26;;;;;;;272.25;244.20;;;12.50;99.90;;;;;;4981109;28;20435;-86
2023/03/31 07:33:52;;;;;;;271.48;243.95;;;13.40;99.90;;;;;;4987642;28;20037;-85
2023/03/31 07:36:18;;;;;;;355.67;292.33;;;14.10;99.90;;;;;;4982008;28;20045;-85
2023/03/31 07:38:45;;;;;;;244.98;222.35;;;12.90;99.90;;;;;;5001369;28;20491;-86
2023/03/31 07:41:19;;;;;;;246.05;220.13;;;14.00;99.90;;;;;;4983435;28;20037;-84
2023/03/31 07:43:45;;;;;;;238.65;217.70;;;13.40;99.90;;;;;;4985808;28;20112;-84
2023/03/31 07:46:23;;;;;;;316.48;287.90;;;14.30;99.90;;;;;;4985258;28;20037;-83
2023/03/31 07:48:50;;;;;;;299.05;269.55;;;12.30;99.90;;;;;;4978186;28;20544;-84
2023/03/31 07:51:18;;;;;;;255.15;229.20;;;14.80;99.90;;;;;;5005037;28;20045;-83
2023/03/31 07:53:45;;;;;;;326.80;284.20;;;13.80;99.90;;;;;;4981690;28;20045;-83
2023/03/31 07:56:11;;;;;;;350.55;312.17;;;15.70;99.90;;;;;;4998367;28;20120;-84
2023/03/31 07:58:40;;;;;;;263.27;231.13;;;14.80;99.90;;;;;;5005350;28;20065;-85
2023/03/31 08:01:07;;;;;;;347.75;304.73;;;16.10;99.90;;;;;;4986143;28;20057;-84
2023/03/31 08:03:33;;;;;;;387.20;311.30;;;13.80;99.90;;;;;;4989529;28;20041;-84
2023/03/31 08:05:59;;;;;;;195.63;175.35;;;12.90;99.90;;;;;;4980651;28;20045;-84
2023/03/31 08:08:25;;;;;;;245.48;218.93;;;16.30;99.90;;;;;;4985838;28;20048;-84
2023/03/31 08:10:51;;;;;;;192.63;173.63;;;15.60;99.90;;;;;;4999001;28;20037;-85
2023/03/31 08:13:17;;;;;;;253.30;228.48;;;14.50;99.90;;;;;;5002778;28;20073;-83
2023/03/31 08:15:43;;;;;;;293.30;261.55;;;15.90;99.90;;;;;;5000736;28;20567;-83
2023/03/31 08:18:09;;;;;;;1319.07;160.40;;;15.10;99.90;;;;;;4999925;28;20037;-83
2023/03/31 08:20:35;;;;;;;103.00;89.95;;;14.40;99.90;;;;;;4986359;28;20042;-84
2023/03/31 08:23:01;;;;;;;62.85;46.50;;;14.80;99.90;;;;;;5001780;28;20068;-84
2023/03/31 08:25:26;;;;;;;66.35;52.85;;;12.40;99.90;;;;;;4995404;28;20081;-83
2023/03/31 08:27:52;;;;;;;120.60;83.75;;;14.30;99.90;;;;;;4981601;28;20060;-83
2023/03/31 08:30:19;;;;;;;126.05;106.00;;;15.30;99.90;;;;;;4997064;28;20434;-83
2023/03/31 08:32:45;;;;;;;180.57;148.70;;;14.20;99.90;;;;;;4985268;28;20045;-83
2023/03/31 08:35:11;;;;;;;159.02;111.43;;;13.60;99.90;;;;;;4990184;28;20141;-83
2023/03/31 08:37:37;;;;;;;139.95;113.28;;;13.30;99.90;;;;;;4983400;28;20133;-83
2023/03/31 08:40:06;;;;;;;150.35;103.85;;;11.90;99.90;;;;;;4988409;28;20414;-83
2023/03/31 08:42:43;;;;;;;129.75;98.88;;;13.50;99.90;;;;;;4984660;28;20136;-82
2023/03/31 08:45:40;;;;;;;102.28;84.05;;;16.40;99.90;;;;;;5003262;28;20049;-82
2023/03/31 08:48:24;;;;;;;118.28;65.68;;;16.50;99.90;;;;;;4984221;28;20041;-81
2023/03/31 08:51:03;;;;;;;627.05;103.15;;;13.40;99.90;;;;;;4987053;28;20060;-82
2023/03/31 08:53:35;;;;;;;90.13;65.30;;;16.60;99.90;;;;;;5009924;28;20037;-81
2023/03/31 08:56:05;;;;;;;58.25;52.58;;;14.60;99.90;;;;;;5009751;28;20052;-81
2023/03/31 08:58:46;;;;;;;87.10;78.15;;;16.30;99.90;;;;;;5004364;28;20041;-81
2023/03/31 09:01:26;;;;;;;102.97;90.88;;;15.10;99.90;;;;;;5001883;28;20069;-81
2023/03/31 09:04:00;;;;;;;182.80;77.53;;;13.80;99.90;;;;;;4989550;28;20037;-83
2023/03/31 09:06:40;;;;;;;287.65;53.15;;;14.60;99.90;;;;;;4990945;28;20411;-83
2023/03/31 09:09:12;;;;;;;55.92;50.45;;;17.00;99.90;;;;;;4989863;28;20488;-81
2023/03/31 09:11:49;;;;;;;119.97;96.13;;;16.50;99.90;;;;;;4991804;28;20064;-82
2023/03/31 09:14:47;;;;;;;80.50;72.07;;;14.10;99.90;;;;;;4982167;28;20768;-82
2023/03/31 09:17:29;;;;;;;57.97;52.13;;;14.60;99.90;;;;;;4976163;28;20085;-82
2023/03/31 09:20:00;;;;;;;105.60;53.50;;;16.10;99.90;;;;;;5001758;28;20045;-82
2023/03/31 09:22:30;;;;;;;60.33;53.90;;;16.10;99.90;;;;;;4980992;28;20049;-81
2023/03/31 09:25:05;;;;;;;48.40;42.92;;;15.40;99.90;;;;;;4984034;28;20073;-82
2023/03/31 09:27:36;;;;;;;87.22;78.00;;;14.60;99.90;;;;;;5006032;28;20512;-82
2023/03/31 09:30:10;;;;;;;57.15;48.08;;;16.20;99.90;;;;;;4999624;28;20030;-82
2023/03/31 09:32:38;;;;;;;105.70;87.10;;;14.20;99.90;;;;;;4993049;28;20049;-82
2023/03/31 09:35:15;;;;;;;69.90;63.22;;;13.70;99.90;;;;;;5001433;28;20542;-82
2023/03/31 09:37:41;;;;;;;71.18;57.83;;;13.40;99.90;;;;;;4999465;28;20045;-82
2023/03/31 09:40:14;;;;;;;78.72;70.15;;;17.40;99.90;;;;;;5006834;28;20500;-81
2023/03/31 09:42:39;;;;;;;78.50;68.75;;;15.90;99.90;;;;;;4978480;28;20045;-82
2023/03/31 09:45:05;;;;;;;85.22;76.55;;;15.20;99.90;;;;;;4979600;28;20412;-82
2023/03/31 09:47:38;;;;;;;64.80;58.80;;;15.90;99.90;;;;;;4983391;28;20519;-82
2023/03/31 09:50:06;;;;;;;71.60;64.00;;;14.30;99.90;;;;;;5006879;28;20489;-83
2023/03/31 09:52:36;;;;;;;75.50;67.82;;;14.80;99.90;;;;;;4983642;28;20125;-83
2023/03/31 09:55:14;;;;;;;56.28;50.65;;;14.80;99.90;;;;;;4986434;28;20095;-83
2023/03/31 09:57:39;;;;;;;51.13;46.40;;;14.10;99.90;;;;;;4996829;28;20046;-84
2023/03/31 10:00:15;;;;;;;75.95;69.15;;;14.50;99.90;;;;;;4992429;28;20452;-83
2023/03/31 10:02:51;;;;;;;90.25;80.57;;;17.00;99.90;;;;;;5008928;28;20405;-84
2023/03/31 10:05:19;;;;;;;;;;;13.10;99.90;;;;;;4999045;28;20033;-83
2023/03/31 10:07:45;;;;;;;177.00;122.97;;;14.70;99.90;;;;;;4986380;28;19922;-82
2023/03/31 10:10:25;;;;;;;166.05;140.10;;;15.00;99.90;;;;;;4988949;28;20050;-82
2023/03/31 10:12:51;;;;;;;142.27;127.30;;;16.30;99.90;;;;;;4982329;28;20056;-82
2023/03/31 10:15:25;;;;;;;107.50;96.30;;;16.80;99.90;;;;;;4996647;28;20319;-82
2023/03/31 10:17:51;;;;;;;164.35;120.35;;;14.70;99.90;;;;;;4983401;28;20049;-82
2023/03/31 10:20:40;;;;;;;81.63;72.85;;;18.00;99.90;;;;;;4984486;28;20511;-89
2023/03/31 10:23:16;;;;;;;58.55;50.67;;;17.50;99.90;;;;;;4983905;28;20041;-89
2023/03/31 10:25:43;;;;;;;85.60;77.32;;;13.80;99.90;;;;;;4983296;28;20069;-89
2023/03/31 10:28:15;;;;;;;92.03;83.45;;;16.30;99.90;;;;;;4995035;28;20073;-88
2023/03/31 10:30:54;;;;;;;53.28;47.67;;;14.70;99.90;;;;;;5006950;28;20115;-88
2023/03/31 10:33:24;;;;;;;56.70;50.15;;;14.40;99.90;;;;;;5003384;28;20045;-88
2023/03/31 10:35:56;;;;;;;70.15;62.35;;;14.00;99.90;;;;;;4985439;28;20037;-88
2023/03/31 10:38:39;;;;;;;65.75;58.53;;;17.30;99.90;;;;;;4987220;28;20072;-89
2023/03/31 10:41:05;;;;;;;123.05;107.68;;;14.60;99.90;;;;;;4997703;28;20053;-89
2023/03/31 10:43:46;;;;;;;58.38;51.00;;;18.30;99.90;;;;;;5005229;28;20040;-93
2023/03/31 10:46:11;;;;;;;70.28;62.92;;;15.40;99.90;;;;;;4980736;28;20517;-91
2023/03/31 10:48:40;;;;;;;51.22;45.75;;;18.80;99.90;;;;;;4988659;28;20041;-90
2023/03/31 10:51:35;;;;;;;37.13;32.97;;;15.00;99.90;;;;;;4982401;28;20045;-90
2023/03/31 10:54:03;;;;;;;53.75;45.78;;;14.80;99.90;;;;;;4970656;28;20096;-87
2023/03/31 10:57:04;;;;;;;65.90;59.55;;;16.60;99.90;;;;;;4995617;28;20038;-89
2023/03/31 10:59:51;;;;;;;52.75;47.33;;;15.00;99.90;;;;;;5001272;28;20553;-90
2023/03/31 11:02:39;;;;;;;49.40;44.42;;;14.70;99.90;;;;;;5001639;28;20045;-90
2023/03/31 11:05:21;;;;;;;53.10;47.80;;;15.00;99.90;;;;;;4984673;28;20505;-89
2023/03/31 11:08:00;;;;;;;62.55;53.67;;;18.00;99.90;;;;;;4982230;28;20038;-89
2023/03/31 11:10:40;;;;;;;42.25;38.55;;;18.60;99.90;;;;;;4998143;28;20034;-89
2023/03/31 11:13:21;;;;;;;53.55;45.30;;;18.70;99.90;;;;;;4998929;28;20489;-90
2023/03/31 11:16:20;;;;;;;48.42;43.22;;;18.20;99.90;;;;;;4995478;28;20049;-89
2023/03/31 11:19:02;;;;;;;56.83;51.08;;;16.90;99.90;;;;;;4997401;28;20042;-88
2023/03/31 11:22:03;;;;;;;56.03;49.25;;;18.20;99.90;;;;;;4987436;28;20049;-88
2023/03/31 11:24:35;;;;;;;51.83;46.17;;;14.90;99.90;;;;;;4932898;28;20042;-89
2023/03/31 11:27:26;;;;;;;79.60;70.63;;;16.80;99.90;;;;;;4989875;28;20136;-89
2023/03/31 11:30:15;;;;;;;63.00;56.22;;;17.80;99.90;;;;;;4980407;28;20368;-89
2023/03/31 11:32:55;;;;;;;59.95;53.83;;;15.00;99.90;;;;;;5012265;28;20042;-88
2023/03/31 11:35:46;;;;;;;56.50;50.83;;;14.20;99.90;;;;;;4998139;28;20040;-88
2023/03/31 11:38:14;;;;;;;39.55;35.58;;;13.90;99.90;;;;;;4993923;28;20070;-92
2023/03/31 11:41:03;;;;;;;31.02;27.95;;;13.80;99.90;;;;;;4985626;28;20044;-89
2023/03/31 11:43:45;;;;;;;58.05;51.83;;;16.60;99.90;;;;;;4992101;28;20034;-89
2023/03/31 11:46:16;;;;;;;55.55;49.30;;;14.60;99.90;;;;;;4994669;28;20493;-91
2023/03/31 11:48:49;;;;;;;71.15;64.05;;;16.80;99.90;;;;;;4991833;28;21195;-90
2023/03/31 11:51:23;;;;;;;99.25;81.18;;;13.70;99.90;;;;;;4986594;28;20107;-90
2023/03/31 11:53:51;;;;;;;63.83;53.13;;;14.60;99.90;;;;;;4980637;28;20048;-90
2023/03/31 11:56:18;;;;;;;68.32;61.20;;;16.70;99.90;;;;;;4976574;28;20456;-87
2023/03/31 11:58:54;;;;;;;46.72;42.28;;;16.30;99.90;;;;;;4977918;28;20584;-90
2023/03/31 12:01:20;;;;;;;;;;;16.70;99.90;;;;;;4987924;28;20136;-91
2023/03/31 12:04:24;;;;;;;72.20;64.67;;;17.50;99.90;;;;;;4997304;28;20360;-90
2023/03/31 12:06:56;;;;;;;65.50;57.70;;;17.20;99.90;;;;;;4975001;28;20049;-90
2023/03/31 12:09:42;;;;;;;67.40;60.33;;;15.30;99.90;;;;;;4987305;28;20140;-90
2023/03/31 12:12:21;;;;;;;91.53;77.50;;;15.80;99.90;;;;;;5010745;28;20497;-90
2023/03/31 12:15:12;;;;;;;66.78;59.67;;;16.70;99.90;;;;;;5001655;28;20114;-94
2023/03/31 12:17:42;;;;;;;51.40;42.30;;;17.10;99.90;;;;;;4996750;28;20034;-92
2023/03/31 12:20:36;;;;;;;51.80;46.83;;;14.00;99.90;;;;;;4983283;28;20044;-91
2023/03/31 12:23:05;;;;;;;70.38;62.80;;;14.60;99.90;;;;;;4989603;28;20036;-88
2023/03/31 12:25:49;;;;;;;80.55;72.68;;;13.80;99.90;;;;;;4990098;28;20041;-89
2023/03/31 12:28:18;;;;;;;88.22;79.38;;;17.00;99.90;;;;;;5002711;28;20136;-88
2023/03/31 12:30:46;;;;;;;94.00;84.28;;;19.00;99.90;;;;;;4980820;28;20132;-88
2023/03/31 12:33:21;;;;;;;67.07;60.15;;;15.00;99.90;;;;;;4977038;28;20565;-89
2023/03/31 12:36:09;;;;;;;82.90;75.15;;;17.70;99.90;;;;;;4992783;28;20053;-88